createdAt,value
2022-08-25T00:01:55.324Z,3.43
2022-08-25T00:07:31.208Z,2.90
2022-08-25T00:13:08.825Z,3.10
2022-08-25T00:18:45.842Z,3.40
2022-08-25T00:24:38.471Z,3.20
2022-08-25T00:30:16.878Z,3.70
2022-08-25T00:35:52.731Z,3.70
2022-08-25T00:41:27.286Z,3.53
2022-08-25T00:49:48.004Z,3.57
2022-08-25T00:55:24.985Z,3.40
2022-08-25T01:03:36.442Z,3.43
2022-08-25T01:09:11.064Z,3.53
2022-08-25T01:14:40.644Z,3.97
2022-08-25T01:17:34.910Z,4.00
2022-08-25T01:26:02.038Z,3.30
2022-08-25T01:31:31.072Z,3.80
2022-08-25T01:37:13.739Z,3.70
2022-08-25T01:42:55.790Z,3.70
2022-08-25T01:45:49.554Z,4.30
2022-08-25T01:51:25.679Z,4.07
2022-08-25T01:54:14.678Z,3.60
2022-08-25T02:02:52.265Z,4.00
2022-08-25T02:08:27.227Z,4.17
2022-08-25T02:11:16.240Z,4.03
2022-08-25T02:16:48.863Z,4.60
2022-08-25T02:22:23.338Z,4.00
2022-08-25T02:27:54.780Z,4.37
2022-08-25T02:33:29.256Z,4.57
2022-08-25T02:39:16.059Z,4.00
2022-08-25T02:44:54.154Z,4.33
2022-08-25T02:50:21.518Z,4.57
2022-08-25T02:55:58.392Z,4.53
2022-08-25T03:01:30.917Z,4.30
2022-08-25T03:04:20.031Z,4.70
2022-08-25T03:07:08.556Z,4.70
2022-08-25T03:09:58.627Z,4.60
2022-08-25T03:12:48.026Z,4.20
2022-08-25T03:18:18.172Z,4.50
2022-08-25T03:23:57.043Z,4.80
2022-08-25T03:29:29.786Z,4.23
2022-08-25T03:35:02.915Z,4.90
2022-08-25T03:37:51.817Z,4.37
2022-08-25T03:43:39.825Z,4.63
2022-08-25T03:46:30.210Z,4.60
2022-08-25T03:52:05.465Z,4.90
2022-08-25T03:57:39.028Z,5.13
2022-08-25T04:00:27.393Z,4.80
2022-08-25T04:03:15.943Z,5.20
2022-08-25T04:08:43.220Z,4.77
2022-08-25T04:14:16.699Z,5.43
2022-08-25T04:19:47.887Z,4.53
2022-08-25T04:25:21.421Z,4.90
2022-08-25T04:28:10.875Z,4.70
2022-08-25T04:33:42.566Z,4.63
2022-08-25T04:39:20.134Z,5.30
2022-08-25T04:44:57.381Z,5.20
2022-08-25T04:50:39.727Z,5.10
2022-08-25T04:53:28.292Z,5.90
2022-08-25T04:58:58.338Z,5.60
2022-08-25T05:07:47.568Z,5.33
2022-08-25T05:10:38.613Z,4.93
2022-08-25T05:16:13.926Z,5.87
2022-08-25T05:21:51.350Z,5.27
2022-08-25T05:24:43.302Z,5.33
2022-08-25T05:30:21.972Z,4.33
2022-08-25T05:35:53.072Z,4.00
2022-08-25T05:38:42.026Z,4.40
2022-08-25T05:44:21.303Z,4.30
2022-08-25T05:47:09.617Z,4.37
2022-08-25T05:49:57.503Z,4.13
2022-08-25T05:52:47.817Z,4.80
2022-08-25T05:55:36.963Z,4.77
2022-08-25T05:58:27.825Z,5.20
2022-08-25T06:01:43.318Z,5.10
2022-08-25T06:04:32.815Z,5.27
2022-08-25T06:07:21.184Z,5.40
2022-08-25T06:10:12.705Z,4.80
2022-08-25T06:13:01.268Z,5.77
2022-08-25T06:18:34.638Z,5.53
2022-08-25T06:24:15.356Z,5.40
2022-08-25T06:27:02.773Z,5.43
2022-08-25T06:32:40.715Z,5.63
2022-08-25T06:38:17.420Z,6.57
2022-08-25T06:43:48.885Z,5.77
2022-08-25T06:49:18.807Z,5.83
2022-08-25T06:57:35.157Z,6.80
2022-08-25T07:03:04.885Z,5.50
2022-08-25T07:08:43.877Z,3.20
2022-08-25T07:23:15.200Z,3.83
2022-08-25T07:26:21.535Z,3.93
2022-08-25T07:31:49.363Z,3.33
2022-08-25T07:37:47.999Z,3.47
2022-08-25T07:43:04.751Z,3.33
2022-08-25T07:45:55.399Z,3.37
2022-08-25T07:51:32.574Z,2.70
2022-08-25T07:59:51.830Z,3.10
2022-08-25T08:02:40.997Z,3.17
2022-08-25T08:08:19.010Z,3.00
2022-08-25T08:13:58.030Z,4.33
2022-08-25T08:16:46.327Z,4.23
2022-08-25T08:22:20.592Z,4.30
2022-08-25T08:27:58.821Z,4.30
2022-08-25T08:33:32.690Z,4.10
2022-08-25T08:39:02.830Z,3.30
2022-08-25T08:45:09.742Z,3.93
2022-08-25T08:51:00.405Z,3.80
2022-08-25T08:56:43.612Z,3.60
2022-08-25T09:02:39.141Z,2.90
2022-08-25T09:05:12.236Z,2.83
2022-08-25T09:10:46.100Z,3.30
2022-08-25T09:16:48.438Z,3.23
2022-08-25T09:20:20.675Z,3.10
2022-08-25T09:25:58.044Z,3.03
2022-08-25T09:34:26.034Z,3.30
2022-08-25T09:37:16.028Z,3.20
2022-08-25T09:42:57.979Z,3.40
2022-08-25T09:48:39.063Z,3.03
2022-08-25T09:51:31.348Z,3.50
2022-08-25T09:54:25.520Z,3.17
2022-08-25T10:00:21.609Z,3.40
2022-08-25T10:03:13.601Z,2.93
2022-08-25T10:06:13.271Z,3.23
2022-08-25T10:11:49.497Z,3.10
2022-08-25T10:17:30.302Z,2.80
2022-08-25T10:23:14.908Z,2.77
2022-08-25T10:31:55.328Z,3.33
2022-08-25T10:37:54.178Z,2.90
2022-08-25T10:40:46.503Z,3.10
2022-08-25T10:46:18.883Z,2.80
2022-08-25T10:49:09.229Z,3.50
2022-08-25T10:54:47.666Z,3.20
2022-08-25T11:00:31.763Z,3.20
2022-08-25T11:06:09.991Z,2.73
2022-08-25T11:11:46.252Z,3.50
2022-08-25T11:17:25.919Z,3.40
2022-08-25T11:20:19.811Z,3.20
2022-08-25T11:25:53.818Z,3.10
2022-08-25T11:31:41.527Z,3.40
2022-08-25T11:37:21.332Z,3.40
2022-08-25T11:43:25.951Z,3.17
2022-08-25T11:49:31.518Z,3.47
2022-08-25T12:02:06.811Z,3.20
2022-08-25T12:08:23.862Z,3.13
2022-08-25T12:13:58.205Z,2.60
2022-08-25T12:26:00.022Z,2.80
2022-08-25T12:32:39.022Z,2.63
2022-08-25T12:41:08.960Z,3.20
2022-08-25T12:46:47.453Z,2.70
2022-08-25T12:52:27.998Z,2.80
2022-08-25T12:58:05.167Z,2.57
2022-08-25T13:04:09.398Z,2.63
2022-08-25T13:07:06.652Z,2.60
2022-08-25T13:10:24.129Z,2.80
2022-08-25T13:16:09.840Z,3.00
2022-08-25T13:21:46.055Z,2.83
2022-08-25T13:27:29.471Z,2.83
2022-08-25T13:30:28.515Z,2.87
2022-08-25T13:33:23.701Z,3.00
2022-08-25T13:44:39.775Z,3.27
2022-08-25T13:50:33.347Z,2.80
2022-08-25T13:59:06.278Z,2.47
2022-08-25T14:01:57.362Z,2.93
2022-08-25T14:07:35.587Z,2.67
2022-08-25T14:10:36.778Z,3.07
2022-08-25T14:16:30.720Z,2.50
2022-08-25T14:22:10.991Z,2.57
2022-08-25T14:28:07.467Z,2.80
2022-08-25T14:33:50.158Z,2.40
2022-08-25T14:39:34.942Z,2.80
2022-08-25T14:45:17.310Z,3.17
2022-08-25T14:50:54.107Z,2.37
2022-08-25T14:56:31.162Z,2.70
2022-08-25T15:02:12.984Z,3.23
2022-08-25T15:08:04.958Z,3.00
2022-08-25T15:13:36.733Z,2.63
2022-08-25T15:19:15.811Z,3.43
2022-08-25T15:22:04.174Z,2.40
2022-08-25T15:27:41.863Z,3.00
2022-08-25T15:33:19.684Z,2.60
2022-08-25T15:36:11.187Z,3.33
2022-08-25T15:41:46.252Z,2.80
2022-08-25T15:44:36.526Z,3.10
2022-08-25T15:53:02.632Z,3.23
2022-08-25T15:55:52.328Z,2.50
2022-08-25T15:58:49.868Z,2.50
2022-08-25T16:04:14.273Z,2.80
2022-08-25T16:15:37.555Z,2.80
2022-08-25T16:21:18.063Z,2.77
2022-08-25T16:24:08.085Z,2.50
2022-08-25T16:29:42.429Z,3.10
2022-08-25T16:38:07.180Z,2.33
2022-08-25T16:43:36.480Z,2.90
2022-08-25T16:49:16.224Z,2.57
2022-08-25T16:57:39.840Z,2.50
2022-08-25T17:03:34.073Z,2.87
2022-08-25T17:09:01.167Z,2.60
2022-08-25T17:14:36.254Z,2.70
2022-08-25T17:20:12.657Z,2.63
2022-08-25T17:25:52.820Z,2.67
2022-08-25T17:28:42.608Z,2.20
2022-08-25T17:31:32.043Z,3.33
2022-08-25T17:37:07.766Z,2.83
2022-08-25T17:42:42.289Z,3.00
2022-08-25T17:48:12.769Z,3.07
2022-08-25T17:53:47.350Z,2.83
2022-08-25T17:59:21.833Z,2.77
2022-08-25T18:02:10.889Z,3.60
2022-08-25T18:08:03.462Z,3.27
2022-08-25T18:13:37.295Z,3.00
2022-08-25T18:19:09.682Z,3.00
2022-08-25T18:21:57.253Z,3.20
2022-08-25T18:24:47.319Z,3.77
2022-08-25T18:27:36.993Z,3.70
2022-08-25T18:33:15.641Z,4.00
2022-08-25T18:36:04.966Z,5.73
2022-08-25T18:41:42.357Z,4.53
2022-08-25T18:47:11.508Z,5.20
2022-08-25T18:52:46.506Z,3.97
2022-08-25T18:58:19.818Z,3.23
2022-08-25T19:03:53.031Z,3.20
2022-08-25T19:09:25.938Z,3.20
2022-08-25T19:15:00.575Z,3.70
2022-08-25T19:20:30.496Z,3.70
2022-08-25T19:26:13.943Z,3.67
2022-08-25T19:28:59.655Z,3.40
2022-08-25T19:31:49.711Z,3.10
2022-08-25T19:34:42.652Z,3.23
2022-08-25T19:40:20.323Z,3.23
2022-08-25T19:43:08.728Z,3.90
2022-08-25T19:48:42.207Z,3.40
2022-08-25T19:51:31.663Z,4.33
2022-08-25T19:57:11.072Z,4.30
2022-08-25T19:59:59.076Z,4.13
2022-08-25T20:02:48.609Z,4.20
2022-08-25T20:08:30.166Z,3.87
2022-08-25T20:14:05.103Z,3.90
2022-08-25T20:16:54.717Z,2.97
2022-08-25T20:19:43.216Z,3.90
2022-08-25T20:22:34.183Z,3.50
2022-08-25T20:28:12.588Z,3.63
2022-08-25T20:31:00.653Z,3.13
2022-08-25T20:36:41.574Z,4.33
2022-08-25T20:39:29.733Z,3.37
2022-08-25T20:42:21.859Z,4.00
2022-08-25T20:48:01.200Z,3.63
2022-08-25T20:53:39.220Z,3.70
2022-08-25T20:59:13.472Z,4.60
2022-08-25T21:02:05.333Z,4.27
2022-08-25T21:04:57.032Z,3.83
2022-08-25T21:07:48.994Z,4.43
2022-08-25T21:13:43.713Z,4.10
2022-08-25T21:16:39.427Z,4.57
2022-08-25T21:19:31.816Z,4.27
2022-08-25T21:25:08.986Z,4.13
2022-08-25T21:27:58.907Z,4.67
2022-08-25T21:33:53.425Z,4.10
2022-08-25T21:36:44.358Z,4.63
2022-08-25T21:39:33.653Z,4.60
2022-08-25T21:45:27.246Z,4.60
2022-08-25T21:51:07.358Z,4.60
2022-08-25T21:56:49.172Z,4.87
2022-08-25T22:02:22.504Z,4.50
2022-08-25T22:05:13.499Z,4.53
2022-08-25T22:08:03.368Z,4.23
2022-08-25T22:10:52.005Z,4.60
2022-08-25T22:13:43.244Z,4.60
2022-08-25T22:19:18.132Z,4.80
2022-08-25T22:24:50.568Z,4.40
2022-08-25T22:30:29.530Z,4.63
2022-08-25T22:33:18.136Z,4.50
2022-08-25T22:36:14.683Z,4.50
2022-08-25T22:39:04.860Z,4.63
2022-08-25T22:41:56.122Z,4.70
2022-08-25T22:44:45.015Z,4.37
2022-08-25T22:47:34.332Z,4.80
2022-08-25T22:50:22.857Z,4.77
2022-08-25T22:53:11.433Z,4.73
2022-08-25T22:56:02.429Z,4.57
2022-08-25T23:01:39.623Z,4.70
2022-08-25T23:07:17.856Z,5.40
2022-08-25T23:12:56.118Z,4.67
2022-08-25T23:18:31.730Z,4.80
2022-08-25T23:21:41.229Z,4.87
2022-08-25T23:27:15.725Z,4.83
2022-08-25T23:32:51.971Z,4.73
2022-08-25T23:38:28.423Z,4.93
2022-08-25T23:41:18.692Z,5.43
2022-08-25T23:46:54.102Z,5.23
2022-08-25T23:52:31.830Z,4.83
2022-08-25T23:55:19.979Z,5.17
